Time,TemperatureF,DewpointF,PressureIn,WindDirection,WindDirectionDegrees,WindSpeedMPH,WindSpeedGustMPH,Humidity,HourlyPrecipIn,Conditions,Clouds,dailyrainin,SoftwareType,DateUTC
2013-07-23 00:04:00,71.4,65.6,29.09,ENE,68,5.4,5.4,82,0.21,,---,0.05,VWS V14.01,2013-07-23 05:04:00,
2013-07-23 00:09:00,71.2,65.8,29.09,ENE,68,2.7,2.7,83,0.25,,---,0.09,VWS V14.01,2013-07-23 05:09:00,
2013-07-23 00:14:00,71.1,65.6,29.06,NNE,22,1.6,1.6,83,0.25,,---,0.09,VWS V14.01,2013-07-23 05:14:00,
2013-07-23 00:19:00,71.1,65.6,29.06,ENE,68,2.2,2.2,83,0.25,,---,0.09,VWS V14.01,2013-07-23 05:19:00,
2013-07-23 00:24:00,70.9,65.8,29.06,NE,45,0.0,2.7,84,0.25,,---,0.09,VWS V14.01,2013-07-23 05:24:00,
2013-07-23 00:29:00,70.9,65.8,29.03,SSE,158,0.0,0.0,84,0.25,,---,0.09,VWS V14.01,2013-07-23 05:29:00,
2013-07-23 00:34:00,70.9,66.2,29.03,South,180,0.0,1.3,85,0.25,,---,0.09,VWS V14.01,2013-07-23 05:34:00,
2013-07-23 00:39:00,70.9,66.5,29.03,SE,135,0.0,1.1,86,0.21,,---,0.09,VWS V14.01,2013-07-23 05:39:00,
2013-07-23 00:44:00,70.5,66.5,29.03,SSE,158,2.9,2.9,87,0.17,,---,0.09,VWS V14.01,2013-07-23 05:44:00,
2013-07-23 00:49:00,70.5,66.5,29.03,SSE,158,2.5,2.5,87,0.13,,---,0.09,VWS V14.01,2013-07-23 05:49:00,
2013-07-23 00:54:00,70.5,66.8,29.03,ESE,112,1.3,1.3,88,0.13,,---,0.09,VWS V14.01,2013-07-23 05:54:00,
2013-07-23 01:00:00,70.3,66.6,29.00,South,180,0.0,0.0,88,0.09,,---,0.09,VWS V14.01,2013-07-23 06:00:00,
2013-07-23 01:05:00,70.3,66.6,29.00,South,180,0.0,0.0,88,0.04,,---,0.09,VWS V14.01,2013-07-23 06:05:00,
2013-07-23 01:10:00,70.3,66.6,29.00,South,180,0.0,0.0,88,0.00,,---,0.09,VWS V14.01,2013-07-23 06:10:00,
2013-07-23 01:15:00,70.2,66.4,28.97,South,180,0.0,0.0,88,0.00,,---,0.09,VWS V14.01,2013-07-23 06:15:00,
2013-07-23 01:20:00,70.2,66.4,28.97,South,180,0.0,0.0,88,0.00,,---,0.09,VWS V14.01,2013-07-23 06:20:00,
2013-07-23 01:25:00,69.8,66.1,28.97,South,180,0.0,0.0,88,0.00,,---,0.09,VWS V14.01,2013-07-23 06:25:00,
2013-07-23 01:30:00,69.8,66.1,28.97,South,180,0.0,0.0,88,0.00,,---,0.09,VWS V14.01,2013-07-23 06:30:00,
2013-07-23 01:35:00,69.8,66.1,28.97,SSW,202,1.1,1.1,88,0.00,,---,0.09,VWS V14.01,2013-07-23 06:35:00,
2013-07-23 01:40:00,69.6,65.9,28.97,South,180,2.5,2.5,88,0.00,,---,0.09,VWS V14.01,2013-07-23 06:40:00,
2013-07-23 01:45:00,69.6,65.9,28.97,SSE,158,1.3,1.3,88,0.00,,---,0.09,VWS V14.01,2013-07-23 06:45:00,
2013-07-23 01:50:00,69.6,66.2,28.97,SSW,202,2.7,2.7,89,0.00,,---,0.09,VWS V14.01,2013-07-23 06:50:00,
2013-07-23 01:55:00,69.6,66.2,28.97,South,180,0.0,2.5,89,0.00,,---,0.09,VWS V14.01,2013-07-23 06:55:00,
2013-07-23 02:00:00,69.6,66.2,29.00,ESE,112,0.0,0.0,89,0.00,,---,0.09,VWS V14.01,2013-07-23 07:00:00,
2013-07-23 02:05:00,69.4,66.1,29.00,SSW,202,0.0,2.7,89,0.00,,---,0.09,VWS V14.01,2013-07-23 07:05:00,
2013-07-23 02:10:00,69.4,66.1,29.00,South,180,0.0,0.0,89,0.00,,---,0.09,VWS V14.01,2013-07-23 07:10:00,
2013-07-23 02:16:00,69.3,66.2,29.00,WSW,248,0.0,0.0,90,0.00,,---,0.09,VWS V14.01,2013-07-23 07:16:00,
2013-07-23 02:21:00,69.3,66.2,28.97,West,270,1.6,1.6,90,0.00,,---,0.09,VWS V14.01,2013-07-23 07:21:00,
2013-07-23 02:26:00,69.3,66.2,29.00,West,270,1.1,1.1,90,0.00,,---,0.09,VWS V14.01,2013-07-23 07:26:00,
2013-07-23 02:31:00,69.3,66.2,29.00,SW,225,0.0,0.0,90,0.00,,---,0.09,VWS V14.01,2013-07-23 07:31:00,
2013-07-23 02:36:00,69.3,66.2,29.00,South,180,1.6,2.7,90,0.00,,---,0.09,VWS V14.01,2013-07-23 07:36:00,
2013-07-23 02:41:00,69.3,66.2,29.00,SSW,202,0.0,3.8,90,0.00,,---,0.09,VWS V14.01,2013-07-23 07:41:00,
2013-07-23 02:46:00,69.1,66.0,29.00,SW,225,1.6,2.5,90,0.00,,---,0.09,VWS V14.01,2013-07-23 07:46:00,
2013-07-23 02:51:00,69.1,66.0,29.00,SW,225,0.0,1.6,90,0.00,,---,0.09,VWS V14.01,2013-07-23 07:51:00,
2013-07-23 02:56:00,68.9,65.8,29.00,South,180,0.0,0.0,90,0.00,,---,0.09,VWS V14.01,2013-07-23 07:56:00,
2013-07-23 03:01:00,68.7,65.3,29.00,SW,225,2.5,2.5,89,0.00,,---,0.09,VWS V14.01,2013-07-23 08:01:00,
2013-07-23 03:06:00,68.7,65.7,29.00,South,180,2.2,2.2,90,0.00,,---,0.09,VWS V14.01,2013-07-23 08:06:00,
2013-07-23 03:11:00,68.7,65.7,29.00,SSW,202,0.9,0.9,90,0.00,,---,0.09,VWS V14.01,2013-07-23 08:11:00,
2013-07-23 03:16:00,68.5,65.5,29.00,SW,225,0.0,0.0,90,0.00,,---,0.09,VWS V14.01,2013-07-23 08:16:00,
2013-07-23 03:22:00,68.5,65.5,29.00,SSW,202,0.9,0.9,90,0.00,,---,0.09,VWS V14.01,2013-07-23 08:22:00,
2013-07-23 03:27:00,68.4,65.3,29.00,SSW,202,2.9,2.9,90,0.00,,---,0.09,VWS V14.01,2013-07-23 08:27:00,
2013-07-23 03:32:00,68.4,65.3,29.00,SSW,202,0.9,1.3,90,0.00,,---,0.09,VWS V14.01,2013-07-23 08:32:00,
2013-07-23 03:37:00,68.0,65.0,29.00,ESE,112,0.0,0.0,90,0.00,,---,0.09,VWS V14.01,2013-07-23 08:37:00,
2013-07-23 03:42:00,68.0,65.0,29.00,SW,225,2.5,2.5,90,0.00,,---,0.09,VWS V14.01,2013-07-23 08:42:00,
2013-07-23 03:47:00,68.0,65.0,29.00,SSW,202,1.1,1.3,90,0.00,,---,0.09,VWS V14.01,2013-07-23 08:47:00,
2013-07-23 03:52:00,68.0,65.0,29.00,WSW,248,2.5,2.5,90,0.00,,---,0.09,VWS V14.01,2013-07-23 08:52:00,
2013-07-23 03:57:00,68.0,65.0,29.00,SSW,202,3.1,3.1,90,0.00,,---,0.09,VWS V14.01,2013-07-23 08:57:00,
2013-07-23 04:02:00,67.8,65.1,29.00,SW,225,1.6,2.0,91,0.00,,---,0.09,VWS V14.01,2013-07-23 09:02:00,
2013-07-23 04:07:00,67.8,65.1,29.00,SW,225,2.9,2.9,91,0.00,,---,0.09,VWS V14.01,2013-07-23 09:07:00,
2013-07-23 04:12:00,67.8,65.1,29.00,SW,225,3.8,4.3,91,0.00,,---,0.09,VWS V14.01,2013-07-23 09:12:00,
2013-07-23 04:17:00,67.8,65.1,29.00,SW,225,1.6,1.6,91,0.00,,---,0.09,VWS V14.01,2013-07-23 09:17:00,
2013-07-23 04:22:00,67.8,65.1,29.00,SW,225,2.0,2.9,91,0.00,,---,0.09,VWS V14.01,2013-07-23 09:22:00,
2013-07-23 04:28:00,67.8,65.1,29.00,West,270,2.0,2.0,91,0.00,,---,0.09,VWS V14.01,2013-07-23 09:28:00,
2013-07-23 04:33:00,67.8,65.1,29.00,SW,225,2.2,2.5,91,0.00,,---,0.09,VWS V14.01,2013-07-23 09:33:00,
2013-07-23 04:38:00,67.8,65.1,29.00,SW,225,2.7,2.7,91,0.00,,---,0.09,VWS V14.01,2013-07-23 09:38:00,
2013-07-23 04:43:00,67.6,64.9,29.00,SSW,202,2.5,3.1,91,0.00,,---,0.09,VWS V14.01,2013-07-23 09:43:00,
2013-07-23 04:48:00,67.6,64.9,29.00,SSW,202,2.0,3.1,91,0.00,,---,0.09,VWS V14.01,2013-07-23 09:48:00,
2013-07-23 04:53:00,67.6,65.2,29.00,SW,225,0.0,1.3,92,0.00,,---,0.09,VWS V14.01,2013-07-23 09:53:00,
2013-07-23 04:58:00,67.6,65.2,29.00,WSW,248,1.1,1.1,92,0.00,,---,0.09,VWS V14.01,2013-07-23 09:58:00,
2013-07-23 05:03:00,67.6,65.2,29.00,SW,225,2.2,2.2,92,0.00,,---,0.09,VWS V14.01,2013-07-23 10:03:00,
2013-07-23 05:08:00,67.6,65.2,29.00,SSW,202,2.9,2.9,92,0.00,,---,0.09,VWS V14.01,2013-07-23 10:08:00,
2013-07-23 05:13:00,67.6,65.2,29.00,WSW,248,2.7,2.7,92,0.00,,---,0.09,VWS V14.01,2013-07-23 10:13:00,
2013-07-23 05:18:00,67.6,65.2,29.00,West,270,2.0,2.9,92,0.00,,---,0.09,VWS V14.01,2013-07-23 10:18:00,
2013-07-23 05:23:00,67.6,65.2,29.00,WSW,248,4.7,4.7,92,0.00,,---,0.09,VWS V14.01,2013-07-23 10:23:00,
2013-07-23 05:28:00,67.6,65.2,29.00,West,270,1.1,1.1,92,0.00,,---,0.09,VWS V14.01,2013-07-23 10:28:00,
2013-07-23 05:33:00,67.6,65.2,29.00,West,270,0.0,0.0,92,0.00,,---,0.09,VWS V14.01,2013-07-23 10:33:00,
2013-07-23 05:39:00,67.5,65.1,29.00,WSW,248,0.0,0.0,92,0.00,,---,0.09,VWS V14.01,2013-07-23 10:39:00,
2013-07-23 05:44:00,67.5,65.1,29.00,WSW,248,0.0,0.0,92,0.00,,---,0.09,VWS V14.01,2013-07-23 10:44:00,
2013-07-23 05:49:00,67.5,65.1,29.00,SSW,202,1.1,2.5,92,0.00,,---,0.09,VWS V14.01,2013-07-23 10:49:00,
2013-07-23 05:54:00,67.5,65.1,29.00,West,270,0.0,0.0,92,0.00,,---,0.09,VWS V14.01,2013-07-23 10:54:00,
2013-07-23 05:59:00,67.5,65.1,29.00,West,270,0.0,0.0,92,0.00,,---,0.09,VWS V14.01,2013-07-23 10:59:00,
2013-07-23 06:04:00,67.5,65.1,29.00,WSW,248,0.0,0.0,92,0.00,,---,0.09,VWS V14.01,2013-07-23 11:04:00,
2013-07-23 06:09:00,67.5,65.1,29.00,SW,225,0.0,0.0,92,0.00,,---,0.09,VWS V14.01,2013-07-23 11:09:00,
2013-07-23 06:14:00,67.5,65.1,29.00,SSW,202,1.1,1.1,92,0.00,,---,0.09,VWS V14.01,2013-07-23 11:14:00,
2013-07-23 06:19:00,67.5,65.1,29.00,SSW,202,0.9,2.0,92,0.00,,---,0.09,VWS V14.01,2013-07-23 11:19:00,
2013-07-23 06:24:00,67.6,65.2,29.00,SSW,202,2.2,2.2,92,0.00,,---,0.09,VWS V14.01,2013-07-23 11:24:00,
2013-07-23 06:29:00,67.6,65.2,29.00,WNW,292,0.0,0.0,92,0.00,,---,0.09,VWS V14.01,2013-07-23 11:29:00,
2013-07-23 06:34:00,67.6,65.2,29.00,West,270,1.3,1.3,92,0.00,,---,0.09,VWS V14.01,2013-07-23 11:34:00,
2013-07-23 06:39:00,67.8,65.4,29.00,West,270,2.2,2.2,92,0.00,,---,0.09,VWS V14.01,2013-07-23 11:39:00,
2013-07-23 06:44:00,68.4,65.9,29.00,SW,225,2.0,2.0,92,0.00,,---,0.09,VWS V14.01,2013-07-23 11:44:00,
2013-07-23 06:49:00,69.1,66.3,29.00,West,270,1.3,1.3,91,0.00,,---,0.09,VWS V14.01,2013-07-23 11:49:00,
2013-07-23 06:54:00,70.2,67.4,29.00,SW,225,1.3,1.3,91,0.00,,---,0.09,VWS V14.01,2013-07-23 11:54:00,
2013-07-23 07:00:00,70.7,67.9,29.00,NW,315,2.7,2.7,91,0.00,,---,0.09,VWS V14.01,2013-07-23 12:00:00,
2013-07-23 07:05:00,71.8,68.7,29.00,WSW,248,2.0,2.0,90,0.00,,---,0.09,VWS V14.01,2013-07-23 12:05:00,
2013-07-23 07:10:00,72.5,69.4,29.00,SSW,202,0.9,2.5,90,0.00,,---,0.09,VWS V14.01,2013-07-23 12:10:00,
2013-07-23 07:15:00,73.2,69.8,29.03,WSW,248,2.0,2.0,89,0.00,,---,0.09,VWS V14.01,2013-07-23 12:15:00,
2013-07-23 07:20:00,73.9,70.2,29.03,SSW,202,2.9,2.9,88,0.00,,---,0.09,VWS V14.01,2013-07-23 12:20:00,
2013-07-23 07:25:00,74.7,70.5,29.03,West,270,2.5,2.9,87,0.00,,---,0.09,VWS V14.01,2013-07-23 12:25:00,
2013-07-23 07:30:00,75.4,70.9,29.03,WSW,248,4.0,4.3,86,0.00,,---,0.09,VWS V14.01,2013-07-23 12:30:00,
2013-07-23 07:35:00,75.9,71.4,29.03,North,0,3.8,5.4,86,0.00,,---,0.09,VWS V14.01,2013-07-23 12:35:00,
2013-07-23 07:40:00,76.3,70.4,29.03,West,270,5.8,5.8,82,0.00,,---,0.09,VWS V14.01,2013-07-23 12:40:00,
2013-07-23 07:45:00,76.3,69.7,29.03,WSW,248,2.5,4.3,80,0.00,,---,0.09,VWS V14.01,2013-07-23 12:45:00,
2013-07-23 07:50:00,76.3,69.3,29.03,WSW,248,3.4,3.4,79,0.00,,---,0.09,VWS V14.01,2013-07-23 12:50:00,
2013-07-23 07:55:00,76.1,68.8,29.03,WSW,248,2.7,3.4,78,0.00,,---,0.09,VWS V14.01,2013-07-23 12:55:00,
2013-07-23 08:01:00,75.9,68.6,29.03,West,270,3.8,3.8,78,0.00,,---,0.09,VWS V14.01,2013-07-23 13:01:00,
2013-07-23 08:06:00,76.1,68.4,29.03,West,270,5.8,5.8,77,0.00,,---,0.09,VWS V14.01,2013-07-23 13:06:00,
2013-07-23 08:11:00,76.5,68.7,29.03,NNW,338,2.0,2.0,77,0.00,,---,0.09,VWS V14.01,2013-07-23 13:11:00,
2013-07-23 08:16:00,76.5,68.7,29.03,North,0,2.9,2.9,77,0.00,,---,0.09,VWS V14.01,2013-07-23 13:16:00,
2013-07-23 08:21:00,76.6,68.9,29.03,North,0,3.6,3.6,77,0.00,,---,0.09,VWS V14.01,2013-07-23 13:21:00,
2013-07-23 08:26:00,76.8,69.1,29.03,WSW,248,1.3,3.1,77,0.00,,---,0.09,VWS V14.01,2013-07-23 13:26:00,
2013-07-23 08:31:00,77.0,68.9,29.03,East,90,3.8,3.8,76,0.00,,---,0.09,VWS V14.01,2013-07-23 13:31:00,
2013-07-23 08:36:00,76.8,68.7,29.03,NNW,338,1.1,4.9,76,0.00,,---,0.09,VWS V14.01,2013-07-23 13:36:00,
2013-07-23 08:41:00,77.0,68.9,29.03,NE,45,3.6,3.6,76,0.00,,---,0.09,VWS V14.01,2013-07-23 13:41:00,
2013-07-23 08:46:00,77.2,69.0,29.03,South,180,5.8,5.8,76,0.00,,---,0.09,VWS V14.01,2013-07-23 13:46:00,
2013-07-23 08:51:00,77.0,68.9,29.03,West,270,2.7,3.8,76,0.00,,---,0.09,VWS V14.01,2013-07-23 13:51:00,
2013-07-23 08:56:00,77.5,69.0,29.03,SW,225,3.4,3.4,75,0.00,,---,0.09,VWS V14.01,2013-07-23 13:56:00,
2013-07-23 09:01:00,77.4,68.8,29.03,North,0,3.1,3.1,75,0.00,,---,0.09,VWS V14.01,2013-07-23 14:01:00,
2013-07-23 09:07:00,77.5,69.0,29.03,WSW,248,1.3,1.3,75,0.00,,---,0.09,VWS V14.01,2013-07-23 14:07:00,
2013-07-23 09:12:00,77.5,69.0,29.03,NNW,338,3.8,3.8,75,0.00,,---,0.09,VWS V14.01,2013-07-23 14:12:00,
2013-07-23 09:17:00,77.9,69.3,29.03,WSW,248,2.5,2.5,75,0.00,,---,0.09,VWS V14.01,2013-07-23 14:17:00,
2013-07-23 09:22:00,78.4,70.2,29.03,North,0,4.3,4.3,76,0.00,,---,0.09,VWS V14.01,2013-07-23 14:22:00,
2013-07-23 09:27:00,78.1,69.5,29.03,NNE,22,3.1,3.1,75,0.00,,---,0.09,VWS V14.01,2013-07-23 14:27:00,
2013-07-23 09:32:00,78.3,69.7,29.03,NW,315,3.8,3.8,75,0.00,,---,0.09,VWS V14.01,2013-07-23 14:32:00,
2013-07-23 09:37:00,78.6,70.0,29.03,WSW,248,3.8,6.3,75,0.00,,---,0.09,VWS V14.01,2013-07-23 14:37:00,
2013-07-23 09:42:00,79.0,70.4,29.03,West,270,3.1,3.1,75,0.00,,---,0.09,VWS V14.01,2013-07-23 14:42:00,
2013-07-23 09:47:00,79.3,70.3,29.03,North,0,2.7,3.1,74,0.00,,---,0.09,VWS V14.01,2013-07-23 14:47:00,
2013-07-23 09:52:00,79.5,70.5,29.03,North,0,3.1,4.3,74,0.00,,---,0.09,VWS V14.01,2013-07-23 14:52:00,
2013-07-23 09:57:00,79.7,70.7,29.06,WNW,292,5.8,5.8,74,0.00,,---,0.09,VWS V14.01,2013-07-23 14:57:00,
2013-07-23 10:02:00,80.1,71.0,29.06,West,270,5.4,5.4,74,0.00,,---,0.09,VWS V14.01,2013-07-23 15:02:00,
2013-07-23 10:07:00,80.4,71.4,29.06,WSW,248,3.6,3.6,74,0.00,,---,0.09,VWS V14.01,2013-07-23 15:07:00,
2013-07-23 10:13:00,81.0,71.5,29.06,NNE,22,3.6,4.3,73,0.00,,---,0.09,VWS V14.01,2013-07-23 15:13:00,
2013-07-23 10:18:00,81.1,70.8,29.06,WSW,248,3.4,3.4,71,0.00,,---,0.09,VWS V14.01,2013-07-23 15:18:00,
2013-07-23 10:23:00,81.0,71.5,29.06,North,0,3.8,3.8,73,0.00,,---,0.09,VWS V14.01,2013-07-23 15:23:00,
2013-07-23 10:28:00,81.1,71.3,29.06,SW,225,4.0,4.0,72,0.00,,---,0.09,VWS V14.01,2013-07-23 15:28:00,
2013-07-23 10:33:00,81.0,71.1,29.06,NNW,338,3.8,3.8,72,0.00,,---,0.09,VWS V14.01,2013-07-23 15:33:00,
2013-07-23 10:38:00,81.1,71.3,29.06,West,270,4.0,4.0,72,0.00,,---,0.09,VWS V14.01,2013-07-23 15:38:00,
2013-07-23 10:43:00,81.1,71.3,29.06,NNW,338,1.6,4.9,72,0.00,,---,0.09,VWS V14.01,2013-07-23 15:43:00,
2013-07-23 10:48:00,81.5,71.2,29.06,West,270,0.0,6.0,71,0.00,,---,0.09,VWS V14.01,2013-07-23 15:48:00,
2013-07-23 10:53:00,81.7,71.4,29.06,North,0,8.7,8.7,71,0.00,,---,0.09,VWS V14.01,2013-07-23 15:53:00,
2013-07-23 10:58:00,82.0,71.7,29.06,West,270,2.0,2.0,71,0.00,,---,0.09,VWS V14.01,2013-07-23 15:58:00,
2013-07-23 11:03:00,82.0,71.3,29.06,West,270,5.4,5.4,70,0.00,,---,0.09,VWS V14.01,2013-07-23 16:03:00,
2013-07-23 11:08:00,82.0,70.9,29.06,NNW,338,3.8,3.8,69,0.00,,---,0.09,VWS V14.01,2013-07-23 16:08:00,
2013-07-23 11:13:00,81.9,70.7,29.06,North,0,3.1,3.1,69,0.00,,---,0.09,VWS V14.01,2013-07-23 16:13:00,
2013-07-23 11:19:00,82.2,71.0,29.06,NNW,338,4.3,4.3,69,0.00,,---,0.09,VWS V14.01,2013-07-23 16:19:00,
2013-07-23 11:24:00,82.4,70.3,29.06,West,270,3.4,4.3,67,0.00,,---,0.09,VWS V14.01,2013-07-23 16:24:00,
2013-07-23 11:29:00,82.2,70.2,29.06,NNE,22,4.9,4.9,67,0.00,,---,0.09,VWS V14.01,2013-07-23 16:29:00,
2013-07-23 11:34:00,82.8,70.7,29.06,WNW,292,2.0,3.6,67,0.00,,---,0.09,VWS V14.01,2013-07-23 16:34:00,
2013-07-23 11:39:00,82.9,71.3,29.06,North,0,1.3,1.3,68,0.00,,---,0.09,VWS V14.01,2013-07-23 16:39:00,
2013-07-23 11:44:00,82.9,70.4,29.06,SW,225,2.9,2.9,66,0.00,,---,0.09,VWS V14.01,2013-07-23 16:44:00,
2013-07-23 11:49:00,82.8,71.1,29.06,NNW,338,1.6,2.7,68,0.00,,---,0.09,VWS V14.01,2013-07-23 16:49:00,
2013-07-23 11:54:00,83.3,71.2,29.06,WNW,292,3.8,3.8,67,0.00,,---,0.09,VWS V14.01,2013-07-23 16:54:00,
2013-07-23 11:59:00,82.8,70.2,29.06,NW,315,8.5,8.5,66,0.00,,---,0.09,VWS V14.01,2013-07-23 16:59:00,
2013-07-23 12:04:00,82.0,69.6,29.06,North,0,3.8,4.9,66,0.00,,---,0.09,VWS V14.01,2013-07-23 17:04:00,
2013-07-23 12:09:00,82.4,69.9,29.06,North,0,3.8,3.8,66,0.00,,---,0.09,VWS V14.01,2013-07-23 17:09:00,
2013-07-23 12:14:00,82.6,69.6,29.06,North,0,3.8,3.8,65,0.00,,---,0.09,VWS V14.01,2013-07-23 17:14:00,
2013-07-23 12:19:00,82.6,70.1,29.06,NW,315,1.3,1.3,66,0.00,,---,0.09,VWS V14.01,2013-07-23 17:19:00,
2013-07-23 12:24:00,82.8,70.2,29.06,NNE,22,5.4,5.4,66,0.00,,---,0.09,VWS V14.01,2013-07-23 17:24:00,
2013-07-23 12:29:00,83.1,70.6,29.09,North,0,4.9,4.9,66,0.00,,---,0.09,VWS V14.01,2013-07-23 17:29:00,
2013-07-23 12:34:00,83.5,70.9,29.09,NNW,338,4.3,4.3,66,0.00,,---,0.09,VWS V14.01,2013-07-23 17:34:00,
2013-07-23 12:40:00,83.7,70.7,29.09,North,0,1.1,1.1,65,0.00,,---,0.09,VWS V14.01,2013-07-23 17:40:00,
2013-07-23 12:45:00,83.5,70.5,29.09,NNW,338,4.3,4.3,65,0.00,,---,0.09,VWS V14.01,2013-07-23 17:45:00,
2013-07-23 12:50:00,82.4,69.5,29.09,NW,315,5.6,5.6,65,0.00,,---,0.09,VWS V14.01,2013-07-23 17:50:00,
2013-07-23 12:55:00,82.6,69.6,29.09,West,270,3.8,3.8,65,0.00,,---,0.09,VWS V14.01,2013-07-23 17:55:00,
2013-07-23 13:00:00,82.4,69.5,29.09,WSW,248,5.4,5.4,65,0.00,,---,0.09,VWS V14.01,2013-07-23 18:00:00,
2013-07-23 13:05:00,82.9,70.0,29.09,SE,135,4.3,5.4,65,0.00,,---,0.09,VWS V14.01,2013-07-23 18:05:00,
2013-07-23 13:11:00,82.8,69.3,29.09,West,270,4.9,4.9,64,0.00,,---,0.09,VWS V14.01,2013-07-23 18:11:00,
2013-07-23 13:16:00,82.6,69.2,29.09,North,0,3.4,3.4,64,0.00,,---,0.09,VWS V14.01,2013-07-23 18:16:00,
2013-07-23 13:21:00,82.8,68.9,29.09,SW,225,2.9,3.4,63,0.00,,---,0.09,VWS V14.01,2013-07-23 18:21:00,
2013-07-23 13:26:00,82.9,68.6,29.09,SW,225,3.1,3.1,62,0.00,,---,0.09,VWS V14.01,2013-07-23 18:26:00,
2013-07-23 13:31:00,83.3,68.5,29.09,NNW,338,4.3,4.3,61,0.00,,---,0.09,VWS V14.01,2013-07-23 18:31:00,
2013-07-23 13:36:00,83.7,68.8,29.09,North,0,6.3,6.3,61,0.00,,---,0.09,VWS V14.01,2013-07-23 18:36:00,
2013-07-23 13:41:00,83.8,68.5,29.09,West,270,3.6,5.4,60,0.00,,---,0.09,VWS V14.01,2013-07-23 18:41:00,
2013-07-23 13:46:00,83.7,67.3,29.09,WSW,248,3.1,8.7,58,0.00,,---,0.09,VWS V14.01,2013-07-23 18:46:00,
2013-07-23 13:51:00,84.0,68.2,29.09,SW,225,5.8,5.8,59,0.00,,---,0.09,VWS V14.01,2013-07-23 18:51:00,
2013-07-23 13:56:00,84.0,67.7,29.09,North,0,5.6,5.6,58,0.00,,---,0.09,VWS V14.01,2013-07-23 18:56:00,
2013-07-23 14:01:00,83.5,67.2,29.09,West,270,3.1,3.1,58,0.00,,---,0.09,VWS V14.01,2013-07-23 19:01:00,
2013-07-23 14:07:00,84.2,68.3,29.09,NNW,338,3.8,3.8,59,0.00,,---,0.09,VWS V14.01,2013-07-23 19:07:00,
2013-07-23 14:12:00,85.3,68.3,29.09,NNW,338,3.8,3.8,57,0.00,,---,0.09,VWS V14.01,2013-07-23 19:12:00,
2013-07-23 14:17:00,86.7,68.1,29.09,NW,315,3.1,3.1,54,0.00,,---,0.00,VWS V14.01,2013-07-23 19:17:00,
2013-07-23 14:22:00,86.4,66.7,29.06,NW,315,3.1,3.1,52,0.00,,---,0.09,VWS V14.01,2013-07-23 19:22:00,
2013-07-23 14:27:00,85.6,67.6,29.06,NW,315,3.1,3.1,55,0.00,,---,0.09,VWS V14.01,2013-07-23 19:27:00,
2013-07-23 14:32:00,84.7,66.3,29.06,WNW,292,4.9,4.9,54,0.00,,---,0.09,VWS V14.01,2013-07-23 19:32:00,
2013-07-23 14:37:00,84.2,66.3,29.06,NNE,22,4.7,4.7,55,0.00,,---,0.09,VWS V14.01,2013-07-23 19:37:00,
2013-07-23 14:42:00,83.7,66.3,29.06,North,0,2.5,2.5,56,0.00,,---,0.09,VWS V14.01,2013-07-23 19:42:00,
2013-07-23 14:47:00,82.8,64.4,29.06,NNE,22,6.9,8.1,54,0.00,,---,0.09,VWS V14.01,2013-07-23 19:47:00,
2013-07-23 14:52:00,82.2,65.0,29.06,WNW,292,6.3,6.3,56,0.00,,---,0.09,VWS V14.01,2013-07-23 19:52:00,
2013-07-23 14:58:00,82.0,65.3,29.09,West,270,2.7,2.7,57,0.00,,---,0.09,VWS V14.01,2013-07-23 19:58:00,
2013-07-23 15:03:00,82.4,65.1,29.09,WNW,292,5.6,5.8,56,0.00,,---,0.09,VWS V14.01,2013-07-23 20:03:00,
2013-07-23 15:08:00,82.4,65.1,29.09,NNW,338,4.3,5.6,56,0.00,,---,0.09,VWS V14.01,2013-07-23 20:08:00,
2013-07-23 15:13:00,81.9,65.2,29.06,South,180,2.7,2.7,57,0.00,,---,0.09,VWS V14.01,2013-07-23 20:13:00,
2013-07-23 15:18:00,81.5,65.3,29.06,NNW,338,1.6,1.6,58,0.00,,---,0.09,VWS V14.01,2013-07-23 20:18:00,
2013-07-23 15:23:00,80.6,64.5,29.06,ESE,112,5.4,5.4,58,0.00,,---,0.09,VWS V14.01,2013-07-23 20:23:00,
2013-07-23 15:29:00,79.9,64.3,29.06,NW,315,2.0,2.0,59,0.00,,---,0.09,VWS V14.01,2013-07-23 20:29:00,
2013-07-23 15:34:00,79.7,64.1,29.06,WSW,248,1.6,1.6,59,0.00,,---,0.09,VWS V14.01,2013-07-23 20:34:00,
2013-07-23 15:39:00,79.7,64.1,29.06,North,0,6.3,6.3,59,0.00,,---,0.09,VWS V14.01,2013-07-23 20:39:00,
2013-07-23 15:44:00,79.2,63.1,29.09,NW,315,2.5,6.3,58,0.00,,---,0.09,VWS V14.01,2013-07-23 20:44:00,
2013-07-23 15:49:00,78.8,63.8,29.09,NW,315,6.3,6.3,60,0.00,,---,0.09,VWS V14.01,2013-07-23 20:49:00,
2013-07-23 15:55:00,78.3,63.2,29.09,NW,315,6.3,6.3,60,0.00,,---,0.09,VWS V14.01,2013-07-23 20:55:00,
2013-07-23 16:00:00,78.1,63.1,29.06,NW,315,3.1,3.1,60,0.00,,---,0.09,VWS V14.01,2013-07-23 21:00:00,
2013-07-23 16:05:00,78.4,63.4,29.06,NW,315,3.1,3.1,60,0.00,,---,0.09,VWS V14.01,2013-07-23 21:05:00,
2013-07-23 16:10:00,78.6,64.1,29.06,North,0,3.4,3.4,61,0.00,,---,0.09,VWS V14.01,2013-07-23 21:10:00,
2013-07-23 16:15:00,78.6,63.6,29.09,NW,315,2.7,2.7,60,0.00,,---,0.09,VWS V14.01,2013-07-23 21:15:00,
2013-07-23 16:20:00,78.8,63.3,29.09,NNW,338,1.1,1.1,59,0.00,,---,0.09,VWS V14.01,2013-07-23 21:20:00,
2013-07-23 16:25:00,79.3,64.3,29.09,NNW,338,2.7,2.7,60,0.00,,---,0.09,VWS V14.01,2013-07-23 21:25:00,
2013-07-23 16:30:00,79.5,64.4,29.09,NNW,338,2.7,2.7,60,0.00,,---,0.09,VWS V14.01,2013-07-23 21:30:00,
2013-07-23 16:35:00,79.5,64.0,29.09,South,180,1.3,1.3,59,0.00,,---,0.09,VWS V14.01,2013-07-23 21:35:00,
2013-07-23 16:41:00,79.3,63.3,29.09,South,180,1.3,1.3,58,0.00,,---,0.09,VWS V14.01,2013-07-23 21:41:00,
2013-07-23 16:46:00,79.2,63.1,29.09,NNE,22,2.0,2.0,58,0.00,,---,0.09,VWS V14.01,2013-07-23 21:46:00,
2013-07-23 16:51:00,78.4,62.0,29.09,East,90,7.8,7.8,57,0.00,,---,0.09,VWS V14.01,2013-07-23 21:51:00,
2013-07-23 16:56:00,78.3,61.8,29.09,East,90,7.8,7.8,57,0.00,,---,0.09,VWS V14.01,2013-07-23 21:56:00,
2013-07-23 17:01:00,78.4,62.0,29.09,ENE,68,1.3,1.3,57,0.00,,---,0.09,VWS V14.01,2013-07-23 22:01:00,
2013-07-23 17:06:00,78.4,62.5,29.09,NNW,338,3.8,3.8,58,0.00,,---,0.09,VWS V14.01,2013-07-23 22:06:00,
2013-07-23 17:11:00,78.3,61.8,29.09,NNW,338,4.0,4.0,57,0.00,,---,0.09,VWS V14.01,2013-07-23 22:11:00,
2013-07-23 17:16:00,78.3,61.8,29.09,SSW,202,2.9,4.3,57,0.00,,---,0.09,VWS V14.01,2013-07-23 22:16:00,
2013-07-23 17:22:00,77.9,61.0,29.09,NE,45,8.5,8.5,56,0.00,,---,0.09,VWS V14.01,2013-07-23 22:22:00,
2013-07-23 17:27:00,78.1,61.6,29.09,WNW,292,0.0,0.0,57,0.00,,---,0.09,VWS V14.01,2013-07-23 22:27:00,
2013-07-23 17:32:00,77.9,61.0,29.09,North,0,4.9,4.9,56,0.00,,---,0.09,VWS V14.01,2013-07-23 22:32:00,
2013-07-23 17:37:00,77.5,60.6,29.09,SE,135,1.3,2.0,56,0.00,,---,0.09,VWS V14.01,2013-07-23 22:37:00,
2013-07-23 17:42:00,77.7,61.3,29.09,NNE,22,3.4,3.4,57,0.00,,---,0.09,VWS V14.01,2013-07-23 22:42:00,
2013-07-23 17:47:00,77.2,60.3,29.09,NNW,338,6.9,6.9,56,0.00,,---,0.09,VWS V14.01,2013-07-23 22:47:00,
2013-07-23 17:52:00,77.0,60.6,29.09,NW,315,2.9,2.9,57,0.00,,---,0.09,VWS V14.01,2013-07-23 22:52:00,
2013-07-23 17:57:00,77.2,61.3,29.09,North,0,4.9,4.9,58,0.00,,---,0.09,VWS V14.01,2013-07-23 22:57:00,
2013-07-23 18:02:00,77.4,61.0,29.09,WNW,292,1.1,1.1,57,0.00,,---,0.09,VWS V14.01,2013-07-23 23:02:00,
2013-07-23 18:07:00,77.2,60.8,29.09,North,0,1.6,1.6,57,0.00,,---,0.09,VWS V14.01,2013-07-23 23:07:00,
2013-07-23 18:13:00,77.2,61.3,29.09,East,90,1.6,1.6,58,0.00,,---,0.09,VWS V14.01,2013-07-23 23:13:00,
2013-07-23 18:18:00,77.0,60.6,29.09,NW,315,0.9,0.9,57,0.00,,---,0.09,VWS V14.01,2013-07-23 23:18:00,
2013-07-23 18:23:00,77.0,60.6,29.09,East,90,2.9,7.4,57,0.00,,---,0.09,VWS V14.01,2013-07-23 23:23:00,
2013-07-23 18:28:00,76.8,60.9,29.09,East,90,2.9,3.1,58,0.00,,---,0.09,VWS V14.01,2013-07-23 23:28:00,
2013-07-23 18:33:00,76.5,60.1,29.09,ENE,68,2.7,2.7,57,0.00,,---,0.09,VWS V14.01,2013-07-23 23:33:00,
2013-07-23 18:38:00,76.5,60.1,29.09,NW,315,2.9,2.9,57,0.00,,---,0.09,VWS V14.01,2013-07-23 23:38:00,
2013-07-23 18:44:00,76.6,60.8,29.09,NNW,338,2.0,2.0,58,0.00,,---,0.09,VWS V14.01,2013-07-23 23:44:00,
2013-07-23 18:49:00,76.5,60.6,29.09,West,270,1.6,1.6,58,0.00,,---,0.09,VWS V14.01,2013-07-23 23:49:00,
2013-07-23 18:54:00,76.3,60.4,29.09,SSW,202,0.0,0.0,58,0.00,,---,0.09,VWS V14.01,2013-07-23 23:54:00,
2013-07-23 18:59:00,76.1,60.8,29.09,NNW,338,0.0,2.0,59,0.00,,---,0.09,VWS V14.01,2013-07-23 23:59:00,
2013-07-23 19:04:00,75.9,60.6,29.09,NW,315,0.0,0.0,59,0.00,,---,0.09,VWS V14.01,2013-07-24 00:04:00,
2013-07-23 19:09:00,75.9,60.6,29.09,NNE,22,2.7,2.7,59,0.00,,---,0.09,VWS V14.01,2013-07-24 00:09:00,
2013-07-23 19:14:00,75.6,60.2,29.09,West,270,1.3,1.3,59,0.00,,---,0.09,VWS V14.01,2013-07-24 00:14:00,
2013-07-23 19:20:00,75.4,60.1,29.09,WNW,292,2.2,2.2,59,0.00,,---,0.09,VWS V14.01,2013-07-24 00:20:00,
2013-07-23 19:25:00,75.2,60.4,29.09,NE,45,0.0,5.4,60,0.00,,---,0.09,VWS V14.01,2013-07-24 00:25:00,
2013-07-23 19:30:00,75.0,60.7,29.09,North,0,1.6,1.6,61,0.00,,---,0.09,VWS V14.01,2013-07-24 00:30:00,
2013-07-23 19:35:00,75.0,60.7,29.09,NNE,22,0.9,0.9,61,0.00,,---,0.09,VWS V14.01,2013-07-24 00:35:00,
2013-07-23 19:40:00,74.8,60.5,29.09,ENE,68,0.0,0.0,61,0.00,,---,0.09,VWS V14.01,2013-07-24 00:40:00,
2013-07-23 19:45:00,74.7,60.8,29.09,WSW,248,0.0,0.0,62,0.00,,---,0.09,VWS V14.01,2013-07-24 00:45:00,
2013-07-23 19:50:00,74.7,60.8,29.09,NNW,338,0.9,0.9,62,0.00,,---,0.09,VWS V14.01,2013-07-24 00:50:00,
2013-07-23 19:55:00,74.5,60.6,29.09,NNW,338,0.0,0.0,62,0.00,,---,0.09,VWS V14.01,2013-07-24 00:55:00,
2013-07-23 20:00:00,74.3,60.5,29.09,NW,315,0.9,0.9,62,0.00,,---,0.09,VWS V14.01,2013-07-24 01:00:00,
2013-07-23 20:06:00,74.3,60.5,29.09,North,0,0.0,0.0,62,0.00,,---,0.09,VWS V14.01,2013-07-24 01:06:00,
2013-07-23 20:11:00,73.9,60.1,29.09,NW,315,0.0,0.9,62,0.00,,---,0.09,VWS V14.01,2013-07-24 01:11:00,
2013-07-23 20:16:00,73.8,60.4,29.09,North,0,0.0,0.0,63,0.00,,---,0.09,VWS V14.01,2013-07-24 01:16:00,
2013-07-23 20:21:00,73.6,60.2,29.09,NNE,22,0.0,0.0,63,0.00,,---,0.09,VWS V14.01,2013-07-24 01:21:00,
2013-07-23 20:26:00,73.4,60.0,29.09,NNW,338,1.6,1.6,63,0.00,,---,0.09,VWS V14.01,2013-07-24 01:26:00,
2013-07-23 20:31:00,73.0,60.2,29.09,ENE,68,0.0,0.0,64,0.00,,---,0.09,VWS V14.01,2013-07-24 01:31:00,
2013-07-23 20:36:00,72.7,59.8,29.09,ENE,68,0.0,0.0,64,0.00,,---,0.09,VWS V14.01,2013-07-24 01:36:00,
2013-07-23 20:41:00,72.5,60.1,29.09,NE,45,0.0,0.0,65,0.00,,---,0.09,VWS V14.01,2013-07-24 01:41:00,
2013-07-23 20:46:00,72.5,60.1,29.09,North,0,0.0,0.0,65,0.00,,---,0.09,VWS V14.01,2013-07-24 01:46:00,
2013-07-23 20:52:00,72.3,59.9,29.09,NNE,22,0.0,0.0,65,0.00,,---,0.09,VWS V14.01,2013-07-24 01:52:00,
2013-07-23 20:57:00,72.0,60.0,29.09,NNE,22,0.0,0.0,66,0.00,,---,0.09,VWS V14.01,2013-07-24 01:57:00,
2013-07-23 21:02:00,71.8,59.8,29.09,NNE,22,0.0,0.0,66,0.00,,---,0.09,VWS V14.01,2013-07-24 02:02:00,
2013-07-23 21:07:00,71.8,59.8,29.09,NNE,22,0.0,0.0,66,0.00,,---,0.09,VWS V14.01,2013-07-24 02:07:00,
2013-07-23 21:12:00,71.6,60.1,29.12,NW,315,0.0,0.0,67,0.00,,---,0.09,VWS V14.01,2013-07-24 02:12:00,
2013-07-23 21:18:00,71.2,59.7,29.12,NW,315,0.0,0.0,67,0.00,,---,0.09,VWS V14.01,2013-07-24 02:18:00,
2013-07-23 21:23:00,71.1,60.0,29.12,NW,315,0.0,0.0,68,0.00,,---,0.09,VWS V14.01,2013-07-24 02:23:00,
2013-07-23 21:28:00,70.9,59.8,29.12,NW,315,0.0,0.0,68,0.00,,---,0.09,VWS V14.01,2013-07-24 02:28:00,
2013-07-23 21:33:00,70.7,59.6,29.12,NW,315,0.0,0.0,68,0.00,,---,0.09,VWS V14.01,2013-07-24 02:33:00,
2013-07-23 21:38:00,70.3,59.7,29.12,NW,315,0.0,0.0,69,0.00,,---,0.09,VWS V14.01,2013-07-24 02:38:00,
2013-07-23 21:43:00,70.2,59.5,29.12,NW,315,0.0,0.0,69,0.00,,---,0.09,VWS V14.01,2013-07-24 02:43:00,
2013-07-23 21:48:00,70.0,59.3,29.12,NW,315,0.0,0.0,69,0.00,,---,0.09,VWS V14.01,2013-07-24 02:48:00,
2013-07-23 21:53:00,69.8,59.2,29.12,NNE,22,0.0,0.0,69,0.00,,---,0.09,VWS V14.01,2013-07-24 02:53:00,
2013-07-23 21:58:00,69.6,59.4,29.14,NNE,22,0.0,0.0,70,0.00,,---,0.09,VWS V14.01,2013-07-24 02:58:00,
2013-07-23 22:04:00,69.6,59.4,29.14,NNW,338,0.0,0.0,70,0.00,,---,0.09,VWS V14.01,2013-07-24 03:04:00,
2013-07-23 22:09:00,69.6,59.4,29.14,NE,45,2.0,2.0,70,0.00,,---,0.09,VWS V14.01,2013-07-24 03:09:00,
2013-07-23 22:14:00,69.6,59.4,29.14,NNE,22,1.3,1.3,70,0.00,,---,0.09,VWS V14.01,2013-07-24 03:14:00,
2013-07-23 22:19:00,69.6,59.4,29.14,East,90,0.0,0.0,70,0.00,,---,0.09,VWS V14.01,2013-07-24 03:19:00,
2013-07-23 22:24:00,69.4,59.2,29.14,East,90,1.1,1.1,70,0.00,,---,0.09,VWS V14.01,2013-07-24 03:24:00,
2013-07-23 22:29:00,69.6,59.0,29.14,NW,315,0.0,1.3,69,0.00,,---,0.09,VWS V14.01,2013-07-24 03:29:00,
2013-07-23 22:34:00,69.6,59.0,29.14,NNE,22,0.0,0.9,69,0.00,,---,0.09,VWS V14.01,2013-07-24 03:34:00,
2013-07-23 22:39:00,69.4,58.8,29.14,NNE,22,0.0,0.0,69,0.00,,---,0.09,VWS V14.01,2013-07-24 03:39:00,
2013-07-23 22:44:00,69.4,58.8,29.14,NE,45,0.0,0.0,69,0.00,,---,0.09,VWS V14.01,2013-07-24 03:44:00,
2013-07-23 22:49:00,69.4,58.8,29.14,North,0,1.3,1.3,69,0.00,,---,0.09,VWS V14.01,2013-07-24 03:49:00,
2013-07-23 22:54:00,69.3,58.3,29.14,North,0,2.5,2.5,68,0.00,,---,0.09,VWS V14.01,2013-07-24 03:54:00,
2013-07-23 23:00:00,69.1,58.5,29.14,ESE,112,8.5,8.5,69,0.00,,---,0.09,VWS V14.01,2013-07-24 04:00:00,
2013-07-23 23:01:00,69.1,58.1,29.14,North,0,6.3,6.3,68,0.00,,---,0.09,VWS V14.01,2013-07-24 04:01:00,
2013-07-23 23:03:00,69.1,58.1,29.14,ENE,68,3.6,3.8,68,0.00,,---,0.09,VWS V14.01,2013-07-24 04:03:00,
2013-07-23 23:08:00,68.7,58.2,29.14,ENE,68,4.3,4.3,69,0.00,,---,0.09,VWS V14.01,2013-07-24 04:08:00,
2013-07-23 23:13:00,68.4,58.2,29.14,NE,45,4.0,4.0,70,0.00,,---,0.09,VWS V14.01,2013-07-24 04:13:00,
2013-07-23 23:18:00,68.2,58.0,29.14,East,90,3.6,3.6,70,0.00,,---,0.09,VWS V14.01,2013-07-24 04:18:00,
2013-07-23 23:23:00,67.8,58.1,29.14,East,90,3.6,4.9,71,0.00,,---,0.09,VWS V14.01,2013-07-24 04:23:00,
2013-07-23 23:28:00,67.5,58.1,29.14,ENE,68,3.4,4.3,72,0.00,,---,0.09,VWS V14.01,2013-07-24 04:28:00,
2013-07-23 23:33:00,67.3,58.0,29.14,ESE,112,3.6,3.6,72,0.00,,---,0.09,VWS V14.01,2013-07-24 04:33:00,
2013-07-23 23:38:00,67.1,58.5,29.14,East,90,6.0,6.0,74,0.00,,---,0.09,VWS V14.01,2013-07-24 04:38:00,
2013-07-23 23:43:00,66.9,58.0,29.14,ENE,68,2.5,4.9,73,0.00,,---,0.09,VWS V14.01,2013-07-24 04:43:00,
2013-07-23 23:48:00,66.6,58.0,29.14,East,90,3.4,3.4,74,0.00,,---,0.09,VWS V14.01,2013-07-24 04:48:00,
2013-07-23 23:53:00,66.4,57.8,29.14,NNE,22,2.0,4.3,74,0.00,,---,0.09,VWS V14.01,2013-07-24 04:53:00,
2013-07-23 23:58:00,66.2,58.0,29.14,East,90,3.6,3.6,75,0.00,,---,0.09,VWS V14.01,2013-07-24 04:58:00,